createdAt,value
2018-03-03T05:42:28.991Z,46.47
2018-03-03T05:48:15.415Z,49.83
2018-03-03T05:50:48.646Z,46.40
2018-03-03T05:53:21.938Z,46.43
2018-03-03T05:58:50.621Z,44.97
2018-03-03T06:01:33.399Z,43.73
2018-03-03T06:04:06.605Z,43.20
2018-03-03T06:06:50.434Z,41.90
2018-03-03T06:09:27.858Z,41.33
2018-03-03T06:11:55.399Z,40.90
2018-03-03T06:14:22.904Z,40.37
2018-03-03T06:16:50.421Z,39.70
2018-03-03T06:19:17.929Z,39.60
2018-03-03T06:21:46.218Z,39.03
2018-03-03T06:24:14.493Z,38.37
2018-03-03T06:26:42.786Z,37.73
2018-03-03T06:29:11.984Z,38.30
2018-03-03T06:31:40.276Z,38.47
2018-03-03T06:34:07.789Z,36.80
2018-03-03T06:36:35.296Z,36.70
2018-03-03T06:39:03.579Z,37.23
2018-03-03T06:41:31.868Z,36.43
2018-03-03T06:43:59.421Z,37.00
2018-03-03T06:46:27.701Z,35.47
2018-03-03T06:48:55.971Z,37.20
2018-03-03T06:51:24.252Z,35.57
2018-03-03T06:53:52.526Z,35.87
2018-03-03T06:56:20.120Z,36.13
2018-03-03T06:58:47.670Z,36.73
2018-03-03T07:01:15.949Z,36.00
2018-03-03T07:03:44.233Z,34.23
2018-03-03T07:06:12.512Z,36.03
2018-03-03T07:08:40.805Z,36.70
2018-03-03T07:11:08.315Z,35.87
2018-03-03T07:13:35.819Z,35.37
2018-03-03T07:16:04.088Z,34.40
2018-03-03T07:18:32.361Z,35.53
2018-03-03T07:20:59.946Z,36.10
2018-03-03T07:23:28.351Z,34.50
2018-03-03T07:25:55.895Z,35.37
2018-03-03T07:28:24.235Z,35.63
2018-03-03T07:30:51.702Z,35.17
2018-03-03T07:33:19.217Z,37.30
2018-03-03T07:35:46.764Z,37.50
2018-03-03T07:38:15.057Z,36.03
2018-03-03T07:40:42.626Z,37.00
2018-03-03T07:43:10.136Z,32.60
2018-03-03T07:45:37.670Z,35.13
2018-03-03T07:48:05.207Z,35.77
2018-03-03T07:50:32.718Z,36.43
2018-03-03T07:53:00.320Z,36.83
2018-03-03T07:55:28.591Z,37.93
2018-03-03T07:57:56.879Z,37.87
2018-03-03T08:00:25.155Z,35.63
2018-03-03T08:02:52.663Z,37.80
2018-03-03T08:05:20.176Z,37.53
2018-03-03T08:07:48.460Z,38.93
2018-03-03T08:10:15.986Z,36.80
2018-03-03T08:12:43.501Z,38.10
2018-03-03T08:15:11.783Z,37.13
2018-03-03T08:17:40.071Z,38.53
2018-03-03T08:20:07.644Z,37.47
2018-03-03T08:22:35.153Z,38.13
2018-03-03T08:25:02.680Z,39.57
2018-03-03T08:27:30.215Z,39.03
2018-03-03T08:29:58.606Z,38.97
2018-03-03T08:32:26.882Z,39.40
2018-03-03T08:34:55.162Z,38.63
2018-03-03T08:37:23.449Z,39.07
2018-03-03T08:39:50.975Z,38.77
2018-03-03T08:42:19.292Z,37.73
2018-03-03T08:44:47.571Z,39.57
2018-03-03T08:47:15.957Z,35.30
2018-03-03T08:49:43.514Z,37.40
2018-03-03T08:52:11.792Z,36.93
2018-03-03T08:54:41.414Z,36.77
2018-03-03T08:57:09.791Z,37.87
2018-03-03T08:59:38.173Z,37.40
2018-03-03T09:02:06.525Z,38.93
2018-03-03T09:04:34.063Z,38.17
2018-03-03T09:07:01.593Z,39.07
2018-03-03T09:09:29.126Z,38.57
2018-03-03T09:11:56.642Z,38.00
2018-03-03T09:14:24.169Z,38.80
2018-03-03T09:16:52.458Z,38.50
2018-03-03T09:19:20.736Z,37.47
2018-03-03T09:21:49.115Z,37.47
2018-03-03T09:24:17.503Z,38.33
2018-03-03T09:26:45.783Z,39.30
2018-03-03T09:29:14.074Z,39.27
2018-03-03T09:31:41.590Z,39.37
2018-03-03T09:34:09.600Z,38.50
2018-03-03T09:36:37.876Z,39.13
2018-03-03T09:39:06.162Z,37.70
2018-03-03T09:41:34.435Z,37.27
2018-03-03T09:44:02.720Z,37.33
2018-03-03T09:46:31.437Z,38.37
2018-03-03T09:48:58.971Z,38.33
2018-03-03T09:51:27.247Z,38.60
2018-03-03T09:53:55.548Z,38.57
2018-03-03T09:56:23.062Z,39.07
2018-03-03T09:58:50.733Z,38.33
2018-03-03T10:01:18.235Z,38.03
2018-03-03T10:03:45.798Z,39.43
2018-03-03T10:06:13.308Z,37.53
2018-03-03T10:08:40.823Z,37.70
2018-03-03T10:11:08.336Z,38.20
2018-03-03T10:13:35.878Z,38.93
2018-03-03T10:16:03.392Z,39.50
2018-03-03T10:18:30.971Z,38.73
2018-03-03T10:20:59.256Z,38.07
2018-03-03T10:23:27.529Z,37.00
2018-03-03T10:25:55.822Z,36.80
2018-03-03T10:28:23.381Z,38.10
2018-03-03T10:30:51.670Z,38.00
2018-03-03T10:33:19.229Z,36.13
2018-03-03T10:35:47.599Z,37.80
2018-03-03T10:38:15.889Z,37.50
2018-03-03T10:40:44.182Z,37.30
2018-03-03T10:43:11.702Z,36.77
2018-03-03T10:45:39.248Z,38.27
2018-03-03T10:48:06.777Z,40.27
2018-03-03T10:50:34.328Z,39.23
2018-03-03T10:53:02.613Z,38.77
2018-03-03T10:55:30.121Z,37.80
2018-03-03T10:57:57.633Z,38.93
2018-03-03T11:00:27.867Z,38.50
2018-03-03T11:02:55.381Z,38.13
2018-03-03T11:05:22.883Z,37.20
2018-03-03T11:07:51.172Z,37.30
2018-03-03T11:10:18.694Z,37.20
2018-03-03T11:12:46.219Z,36.73
2018-03-03T11:15:13.752Z,37.27
2018-03-03T11:17:42.041Z,36.40
2018-03-03T11:20:09.550Z,37.23
2018-03-03T11:22:37.088Z,37.07
2018-03-03T11:25:04.605Z,36.23
2018-03-03T11:27:32.893Z,35.43
2018-03-03T11:30:01.296Z,35.93
2018-03-03T11:32:28.804Z,36.20
2018-03-03T11:34:56.313Z,35.70
2018-03-03T11:37:24.592Z,36.13
2018-03-03T11:39:52.891Z,34.27
2018-03-03T11:42:20.407Z,35.87
2018-03-03T11:44:47.940Z,35.63
2018-03-03T11:47:15.450Z,35.17
2018-03-03T11:49:43.033Z,34.83
2018-03-03T11:52:10.555Z,34.07
2018-03-03T11:54:38.062Z,32.57
2018-03-03T11:57:06.350Z,31.90
2018-03-03T11:59:33.860Z,32.63
2018-03-03T12:02:01.465Z,32.30
2018-03-03T12:04:29.749Z,32.10
2018-03-03T12:06:58.179Z,30.27
2018-03-03T12:09:25.705Z,31.67
2018-03-03T12:11:53.478Z,30.23
2018-03-03T12:14:20.990Z,33.80
2018-03-03T12:16:48.643Z,31.47
2018-03-03T12:19:16.834Z,30.93
2018-03-03T12:21:44.354Z,31.20
2018-03-03T12:24:11.861Z,31.03
2018-03-03T12:26:39.462Z,30.63
2018-03-03T12:29:07.849Z,31.23
2018-03-03T12:31:36.226Z,30.97
2018-03-03T12:34:05.018Z,31.33
2018-03-03T12:36:33.418Z,28.97
2018-03-03T12:39:00.937Z,28.17
2018-03-03T12:41:28.460Z,28.50
2018-03-03T12:43:56.053Z,29.53
2018-03-03T12:46:23.566Z,31.20
2018-03-03T12:48:51.076Z,29.67
2018-03-03T12:51:18.597Z,30.03
2018-03-03T12:53:46.110Z,28.97
2018-03-03T12:56:13.663Z,29.53
2018-03-03T12:58:41.273Z,29.33
2018-03-03T13:01:08.740Z,28.40
2018-03-03T13:03:37.025Z,27.73
2018-03-03T13:06:05.300Z,27.50
2018-03-03T13:08:33.580Z,28.13
2018-03-03T13:11:01.859Z,27.87
2018-03-03T13:13:30.239Z,26.37
2018-03-03T13:15:58.509Z,27.47
2018-03-03T13:18:26.089Z,26.60
2018-03-03T13:20:54.375Z,25.73
2018-03-03T13:23:22.751Z,26.00
2018-03-03T13:25:51.039Z,26.50
2018-03-03T13:28:18.565Z,25.97
2018-03-03T13:30:46.076Z,24.20
2018-03-03T13:33:13.589Z,24.97
2018-03-03T13:35:41.167Z,23.17
2018-03-03T13:38:08.766Z,24.43
2018-03-03T13:40:36.318Z,23.83
2018-03-03T13:43:04.624Z,23.53
2018-03-03T13:45:32.387Z,22.40
2018-03-03T13:48:00.157Z,22.27
2018-03-03T13:50:27.681Z,21.63
2018-03-03T13:52:55.206Z,22.70
2018-03-03T13:55:22.716Z,22.40
2018-03-03T13:57:51.019Z,22.53
2018-03-03T14:00:18.586Z,20.60
2018-03-03T14:02:46.120Z,21.93
2018-03-03T14:05:13.657Z,19.90
2018-03-03T14:07:41.216Z,21.63
2018-03-03T14:10:08.729Z,19.07
2018-03-03T14:12:37.122Z,20.47
2018-03-03T14:15:04.657Z,20.33
2018-03-03T14:17:32.950Z,19.80
2018-03-03T14:20:01.268Z,18.73
2018-03-03T14:22:28.797Z,19.37
2018-03-03T14:24:57.216Z,18.50
2018-03-03T14:27:24.752Z,18.73
2018-03-03T14:29:53.034Z,18.40
2018-03-03T14:32:20.593Z,19.57
2018-03-03T14:34:48.894Z,18.53
2018-03-03T14:37:16.460Z,19.43
2018-03-03T14:39:43.977Z,19.70
2018-03-03T14:42:11.498Z,19.27
2018-03-03T14:44:39.020Z,18.53
2018-03-03T14:47:07.310Z,17.97
2018-03-03T14:49:35.641Z,19.17
2018-03-03T14:52:03.167Z,18.97
2018-03-03T14:54:30.681Z,19.00
2018-03-03T14:56:58.220Z,18.67
2018-03-03T14:59:25.770Z,17.97
2018-03-03T15:01:53.318Z,18.57
2018-03-03T15:04:20.899Z,18.13
2018-03-03T15:06:48.427Z,17.20
2018-03-03T15:09:16.732Z,18.57
2018-03-03T15:11:44.254Z,17.33
2018-03-03T15:14:12.565Z,16.57
2018-03-03T15:16:40.080Z,18.87
2018-03-03T15:19:07.614Z,18.73
2018-03-03T15:21:41.838Z,17.73
2018-03-03T15:24:09.382Z,18.43
2018-03-03T15:26:36.917Z,18.37
2018-03-03T15:29:05.221Z,18.53
2018-03-03T15:31:32.748Z,17.33
2018-03-03T15:34:00.283Z,19.60
2018-03-03T15:36:27.929Z,18.90
2018-03-03T15:38:55.477Z,19.60
2018-03-03T15:41:23.019Z,19.20
2018-03-03T15:43:51.298Z,19.17
2018-03-03T15:46:19.289Z,19.60
2018-03-03T15:48:47.565Z,18.50
2018-03-03T15:51:15.865Z,19.37
2018-03-03T15:53:43.424Z,20.13
2018-03-03T15:56:10.948Z,19.30
2018-03-03T15:58:39.447Z,20.30
2018-03-03T16:01:07.741Z,18.73
2018-03-03T16:03:36.048Z,19.23
2018-03-03T16:06:03.586Z,19.73
2018-03-03T16:08:31.862Z,19.57
2018-03-03T16:11:00.153Z,19.97
2018-03-03T16:13:27.691Z,19.60
2018-03-03T16:15:55.399Z,19.03
2018-03-03T16:18:22.953Z,19.33
2018-03-03T16:20:50.473Z,18.60
2018-03-03T16:23:17.995Z,19.20
2018-03-03T16:25:45.524Z,19.37
2018-03-03T16:28:13.820Z,18.80
2018-03-03T16:30:42.098Z,19.17
2018-03-03T16:33:10.381Z,19.70
2018-03-03T16:35:38.677Z,19.70
2018-03-03T16:38:06.223Z,19.40
2018-03-03T16:40:34.514Z,19.47
2018-03-03T16:43:02.031Z,20.50
2018-03-03T16:45:29.597Z,20.27
2018-03-03T16:47:58.097Z,20.03
2018-03-03T16:50:25.681Z,19.67
2018-03-03T16:52:54.066Z,20.27
2018-03-03T16:55:22.352Z,21.90
2018-03-03T16:57:49.991Z,21.27
2018-03-03T17:00:17.520Z,21.27
2018-03-03T17:02:45.055Z,21.33
2018-03-03T17:05:12.648Z,21.80
2018-03-03T17:07:40.270Z,21.67
2018-03-03T17:10:08.557Z,21.07
2018-03-03T17:12:36.180Z,21.77
2018-03-03T17:15:03.798Z,22.33
2018-03-03T17:17:32.373Z,21.53
2018-03-03T17:19:59.943Z,23.17
2018-03-03T17:22:27.520Z,21.63
2018-03-03T17:24:55.049Z,23.17
2018-03-03T17:27:23.339Z,23.47
2018-03-03T17:29:52.770Z,23.30
2018-03-03T17:32:20.297Z,21.90
2018-03-03T17:34:47.817Z,23.43
2018-03-03T17:37:15.338Z,24.93
2018-03-03T17:39:43.719Z,25.83
2018-03-03T17:42:12.010Z,24.83
2018-03-03T17:44:39.542Z,26.00
2018-03-03T17:47:07.826Z,26.95
2018-03-03T17:49:35.449Z,26.47
2018-03-03T17:52:02.971Z,26.50
2018-03-03T17:54:31.257Z,25.90
2018-03-03T17:56:59.555Z,25.97
2018-03-03T17:59:27.092Z,26.57
2018-03-03T18:01:55.488Z,26.77
2018-03-03T18:04:23.791Z,27.37
2018-03-03T18:06:51.310Z,26.43
2018-03-03T18:09:18.848Z,27.13
2018-03-03T18:12:02.160Z,30.80
2018-03-03T18:14:29.694Z,28.43
2018-03-03T18:16:57.238Z,28.87
2018-03-03T18:19:33.908Z,28.80
2018-03-03T18:22:02.207Z,28.53
2018-03-03T18:24:36.476Z,27.50
2018-03-03T18:27:04.009Z,29.77
2018-03-03T18:29:32.295Z,29.73
2018-03-03T18:31:59.843Z,27.67
2018-03-03T18:34:27.399Z,28.87
2018-03-03T18:36:55.005Z,28.87
2018-03-03T18:39:22.555Z,30.20
2018-03-03T18:41:50.070Z,29.43
2018-03-03T18:44:18.380Z,28.23
2018-03-03T18:46:45.934Z,29.80
2018-03-03T18:49:13.467Z,29.77
2018-03-03T18:51:41.784Z,30.57
2018-03-03T18:54:09.297Z,30.63
2018-03-03T18:56:36.861Z,30.87
2018-03-03T18:59:04.400Z,33.13
2018-03-03T19:01:31.929Z,30.27
2018-03-03T19:04:00.229Z,31.63
2018-03-03T19:06:27.755Z,31.70
2018-03-03T19:08:56.069Z,31.83
2018-03-03T19:11:23.599Z,32.13
2018-03-03T19:13:51.162Z,33.63
2018-03-03T19:16:18.669Z,33.73
2018-03-03T19:18:46.192Z,34.50
2018-03-03T19:21:14.499Z,33.63
2018-03-03T19:23:42.026Z,32.27
2018-03-03T19:26:09.565Z,33.33
2018-03-03T19:28:37.206Z,33.03
2018-03-03T19:31:04.739Z,35.20
2018-03-03T19:33:33.051Z,36.53
2018-03-03T19:36:00.619Z,36.30
2018-03-03T19:38:28.819Z,36.23
2018-03-03T19:40:56.341Z,36.13
2018-03-03T19:43:23.901Z,37.40
2018-03-03T19:45:51.433Z,35.37
2018-03-03T19:48:19.045Z,35.40
2018-03-03T19:50:46.707Z,36.87
2018-03-03T19:53:14.229Z,37.00
2018-03-03T19:55:41.769Z,37.17
2018-03-03T19:58:09.289Z,35.47
2018-03-03T20:00:36.807Z,36.57
2018-03-03T20:03:04.360Z,37.23
2018-03-03T20:05:31.873Z,37.77
2018-03-03T20:08:00.172Z,38.03
2018-03-03T20:10:27.740Z,38.73
2018-03-03T20:12:55.281Z,36.73
2018-03-03T20:15:23.688Z,37.23
2018-03-03T20:17:51.207Z,36.43
2018-03-03T20:20:18.808Z,37.40
2018-03-03T20:22:46.377Z,37.67
2018-03-03T20:25:13.910Z,36.33
2018-03-03T20:27:42.366Z,36.53
2018-03-03T20:30:09.910Z,37.47
2018-03-03T20:32:37.437Z,36.37
2018-03-03T20:35:04.966Z,36.87
2018-03-03T20:37:34.001Z,37.17
2018-03-03T20:40:01.554Z,36.10
2018-03-03T20:42:29.856Z,37.23
2018-03-03T20:44:57.392Z,36.20
2018-03-03T20:47:25.692Z,36.97
2018-03-03T20:49:53.207Z,36.27
2018-03-03T20:52:20.988Z,37.53
2018-03-03T20:54:48.530Z,34.27
2018-03-03T20:57:16.064Z,38.80
2018-03-03T20:59:43.598Z,36.97
2018-03-03T21:02:11.889Z,39.00
2018-03-03T21:04:40.238Z,36.57
2018-03-03T21:07:08.171Z,39.30
2018-03-03T21:09:35.703Z,37.30
2018-03-03T21:12:04.818Z,38.50
2018-03-03T21:14:32.346Z,36.93
2018-03-03T21:16:59.890Z,38.23
2018-03-03T21:19:27.438Z,37.40
2018-03-03T21:21:55.001Z,36.67
2018-03-03T21:24:22.633Z,37.80
2018-03-03T21:26:50.176Z,38.87
2018-03-03T21:29:18.460Z,41.10
2018-03-03T21:31:46.750Z,39.07
2018-03-03T21:34:15.064Z,40.90
2018-03-03T21:36:42.635Z,38.70
2018-03-03T21:39:10.170Z,39.47
2018-03-03T21:41:37.984Z,40.93
2018-03-03T21:44:05.538Z,41.13
2018-03-03T21:46:33.063Z,42.83
2018-03-03T21:49:01.357Z,41.63
2018-03-03T21:51:28.921Z,40.60
2018-03-03T21:53:56.465Z,39.87
2018-03-03T21:56:24.789Z,39.40
2018-03-03T21:58:52.426Z,39.67
2018-03-03T22:01:19.971Z,39.93
2018-03-03T22:03:48.259Z,39.27
2018-03-03T22:06:16.552Z,37.57
2018-03-03T22:08:44.082Z,38.80
2018-03-03T22:11:11.678Z,38.07
2018-03-03T22:13:39.206Z,37.40
2018-03-03T22:16:07.684Z,37.93
2018-03-03T22:18:35.196Z,37.10
2018-03-03T22:21:02.763Z,37.53
2018-03-03T22:23:30.272Z,38.00
2018-03-03T22:25:57.878Z,37.23
2018-03-03T22:28:26.254Z,36.20
2018-03-03T22:30:54.548Z,36.50
2018-03-03T22:33:22.070Z,35.67
2018-03-03T22:35:49.600Z,34.47
2018-03-03T22:38:17.126Z,36.00
2018-03-03T22:40:45.419Z,35.90
2018-03-03T22:43:12.927Z,37.27
2018-03-03T22:45:40.541Z,37.20
2018-03-03T22:48:08.822Z,37.17
2018-03-03T22:50:37.090Z,34.93
2018-03-03T22:53:05.380Z,35.50
2018-03-03T22:55:33.676Z,35.10
2018-03-03T22:58:01.232Z,35.67
2018-03-03T23:00:28.746Z,36.13
2018-03-03T23:02:56.355Z,36.43
2018-03-03T23:05:25.659Z,35.17
2018-03-03T23:07:53.936Z,35.47
2018-03-03T23:10:22.330Z,34.83
2018-03-03T23:12:49.842Z,35.37
2018-03-03T23:15:17.457Z,35.20
2018-03-03T23:17:45.028Z,34.63
2018-03-03T23:20:12.893Z,35.67
2018-03-03T23:22:40.450Z,33.30
2018-03-03T23:25:08.833Z,34.70
2018-03-03T23:27:37.222Z,35.63
2018-03-03T23:30:04.786Z,34.57
2018-03-03T23:32:32.347Z,35.10
2018-03-03T23:35:00.727Z,35.03
2018-03-03T23:37:29.006Z,35.33
2018-03-03T23:39:57.289Z,34.73
2018-03-03T23:42:25.673Z,35.07
2018-03-03T23:44:54.681Z,35.03
2018-03-03T23:47:22.321Z,34.10
2018-03-03T23:49:50.597Z,33.73
2018-03-03T23:52:18.188Z,33.53
2018-03-03T23:54:45.749Z,35.07
2018-03-03T23:57:13.306Z,34.07
2018-03-03T23:59:41.690Z,33.10
